»·PEaware :: FFT81 KCPR-KBIL

FFT81 :: KCPR-KBIL

FLIGHT INFORMATION

Flight Status: Arrived
Operator:
Frontier Airlines
More flights by this operator :: More flights under this callsign
Pilot: Dave P. (45)
Aircraft: BOEING 737-600
(B736)
More flights by this aircraft type
Origin: KCPR Natrona Co Intl
United States
Destination: KBIL Billings Logan Intl
United States
More flights between these airports :: More routes between these airports
Route: +CPR3 CZI CUSGA BGHRN3
File this flight plan on PilotEdge
Remarks: PBN / A1B1C1D1S1S2 DOF / 181105 REG / N736PM EET / KZLC0013 OPR / FFT PER / C RMK / TCAS SIMBRIEF
Altitude:
(Current/Filed)
26,000ft
Speed:
(Current/Filed)
439kts
Departed: 05-Nov-18 11:10 AM
Arrived: 05-Nov-18 11:50 AM
Distance/Time
Traveled:
195nm/0:39
Distance/Time
To Go:
Arrived

Flight Plot

Page will automatically refresh every two minutes.

Flight plan parsing failed; only flown route is shown


Map Options




Map Legend


Flown Route
Filed Route
Departure Airport
Arrival Airport
Navaid (VOR, NDB)
Fix

Horizontal Profiles

Position Reports

Time Latitude Longitude Heading Altitude Ground
Speed
05-Nov-18 10:54 42.902916 -106.458126 179 5355ft 0kts
05-Nov-18 10:55 42.902916 -106.458126 179 5355ft 0kts
05-Nov-18 10:56 42.902916 -106.458126 179 5355ft 0kts
05-Nov-18 10:57 42.902916 -106.458126 179 5355ft 0kts
05-Nov-18 10:58 42.902916 -106.458126 179 5355ft 0kts
05-Nov-18 10:59 42.902916 -106.458126 179 5355ft 0kts
05-Nov-18 11:00 42.902916 -106.458126 179 5355ft 0kts
05-Nov-18 11:01 42.902916 -106.458126 179 5355ft 0kts
05-Nov-18 11:02 42.902916 -106.458126 179 5355ft 0kts
05-Nov-18 11:03 42.902916 -106.458126 179 5355ft 0kts
05-Nov-18 11:04 42.903486 -106.458126 179 5355ft 0kts
05-Nov-18 11:05 42.903486 -106.458126 179 5355ft 0kts
05-Nov-18 11:06 42.903485 -106.458126 179 5355ft 0kts
05-Nov-18 11:07 42.903483 -106.458126 179 5355ft 0kts
05-Nov-18 11:08 42.903059 -106.460230 223 5355ft 12kts
05-Nov-18 11:09 42.898882 -106.465630 225 5355ft 24kts
05-Nov-18 11:10 42.894351 -106.471122 224 5355ft 22kts
05-Nov-18 11:11 42.893134 -106.474293 314 5355ft 0kts
05-Nov-18 11:12 42.893652 -106.474643 25 5355ft 9kts
05-Nov-18 11:13 42.909314 -106.454119 43 5716ft 148kts
05-Nov-18 11:14 42.941013 -106.411778 33 8136ft 164kts
05-Nov-18 11:15 42.995749 -106.409144 356 9660ft 242kts
05-Nov-18 11:16 43.071550 -106.411085 355 12127ft 305kts
05-Nov-18 11:17 43.164308 -106.413512 355 15038ft 347kts
05-Nov-18 11:18 43.263159 -106.416114 354 18551ft 364kts
05-Nov-18 11:19 43.366887 -106.418842 354 21732ft 381kts
05-Nov-18 11:20 43.475433 -106.421715 354 24383ft 396kts
05-Nov-18 11:21 43.587811 -106.424694 354 25882ft 409kts
05-Nov-18 11:22 43.701363 -106.427717 354 25887ft 408kts
05-Nov-18 11:23 43.814883 -106.430751 354 25885ft 408kts
05-Nov-18 11:24 43.928491 -106.433808 354 25884ft 408kts
05-Nov-18 11:25 44.032723 -106.477627 322 25886ft 395kts
05-Nov-18 11:26 44.119909 -106.570817 319 25888ft 394kts
05-Nov-18 11:27 44.205667 -106.666252 319 25889ft 394kts
05-Nov-18 11:28 44.291065 -106.761900 319 25890ft 393kts
05-Nov-18 11:29 44.376369 -106.857619 319 25889ft 393kts
05-Nov-18 11:30 44.461448 -106.953783 319 25888ft 392kts
05-Nov-18 11:31 44.546424 -107.049972 319 25885ft 392kts
05-Nov-18 11:32 44.630998 -107.146431 318 25883ft 392kts
05-Nov-18 11:33 44.715312 -107.243211 318 25882ft 392kts
05-Nov-18 11:34 44.799813 -107.340459 318 25883ft 392kts
05-Nov-18 11:35 44.883927 -107.437790 318 25884ft 391kts
05-Nov-18 11:36 44.967888 -107.535364 318 25885ft 390kts
05-Nov-18 11:37 45.051858 -107.632381 318 25782ft 387kts
05-Nov-18 11:38 45.132568 -107.726697 318 22042ft 367kts
05-Nov-18 11:39 45.209044 -107.816588 318 18327ft 351kts
05-Nov-18 11:40 45.279857 -107.899411 318 16997ft 314kts
05-Nov-18 11:41 45.345728 -107.976015 318 15063ft 301kts
05-Nov-18 11:42 45.409478 -108.050619 318 13019ft 292kts
05-Nov-18 11:43 45.471324 -108.123425 318 10962ft 285kts
05-Nov-18 11:44 45.528976 -108.190955 323 10044ft 247kts
05-Nov-18 11:45 45.595498 -108.223359 343 8820ft 244kts
05-Nov-18 11:46 45.657164 -108.245692 343 7670ft 216kts
05-Nov-18 11:47 45.710309 -108.278262 320 6659ft 189kts
05-Nov-18 11:48 45.749221 -108.325651 301 5969ft 172kts
05-Nov-18 11:49 45.765991 -108.387033 292 5453ft 158kts
05-Nov-18 11:50 45.781050 -108.441178 292 4671ft 132kts
05-Nov-18 11:51 45.794438 -108.489196 292 3985ft 128kts
05-Nov-18 11:52 45.806184 -108.531320 291 3576ft 46kts
05-Nov-18 11:53 45.806784 -108.535998 235 3576ft 0kts
05-Nov-18 11:54 45.805876 -108.537869 214 3576ft 7kts
05-Nov-18 11:55 45.804540 -108.535971 179 3576ft 4kts
05-Nov-18 11:56 45.804402 -108.535968 179 3576ft 0kts
05-Nov-18 11:57 45.804402 -108.535968 179 3576ft 0kts
05-Nov-18 11:58 45.804402 -108.535968 179 3576ft 0kts
05-Nov-18 11:59 45.804402 -108.535968 179 3576ft 0kts
05-Nov-18 12:00 45.804402 -108.535968 179 3576ft 0kts
05-Nov-18 12:01 45.804402 -108.535968 179 3576ft 0kts
05-Nov-18 12:02 45.804402 -108.535968 179 3576ft 0kts
05-Nov-18 12:03 45.804402 -108.535968 179 3576ft 0kts
05-Nov-18 12:04 45.804402 -108.535968 179 3576ft 0kts
05-Nov-18 12:05 45.804402 -108.535968 179 3576ft 0kts
05-Nov-18 12:06 45.804402 -108.535968 179 3576ft 0kts
05-Nov-18 12:07 45.804402 -108.535968 179 3576ft 0kts

Navigation Log

Ident Type
Flight plan parsing failed, navigation log unavailable